createdAt,value
2018-11-05T00:01:44.089Z,97785.56
2018-11-05T00:04:12.557Z,97781.41
2018-11-05T00:06:41.011Z,97782.22
2018-11-05T00:09:10.756Z,97784.22
2018-11-05T00:11:39.233Z,97782.39
2018-11-05T00:14:08.333Z,97779.65
2018-11-05T00:16:39.215Z,97772.03
2018-11-05T00:19:07.822Z,97763.18
2018-11-05T00:21:36.316Z,97756.51
2018-11-05T00:24:05.043Z,97760.36
2018-11-05T00:26:36.774Z,97759.82
2018-11-05T00:29:05.241Z,97751.13
2018-11-05T00:31:36.869Z,97752.07
2018-11-05T00:36:47.427Z,97754.07
2018-11-05T00:39:19.200Z,97756.36
2018-11-05T00:44:50.051Z,97750.38
2018-11-05T00:47:18.494Z,97747.41
2018-11-05T00:49:46.970Z,97756.48
2018-11-05T00:52:15.439Z,97762.11
2018-11-05T00:54:43.934Z,97769.86
2018-11-05T00:57:12.390Z,97780.94
2018-11-05T00:59:40.879Z,97774.36
2018-11-05T01:02:09.715Z,97776.59
2018-11-05T01:04:38.179Z,97773.05
2018-11-05T01:07:25.265Z,97769.67
2018-11-05T01:09:53.744Z,97760.06
2018-11-05T01:12:22.291Z,97753.77
2018-11-05T01:14:50.745Z,97748.81
2018-11-05T01:17:19.291Z,97743.31
2018-11-05T01:19:47.792Z,97741.16
2018-11-05T01:22:16.314Z,97742.48
2018-11-05T01:24:44.812Z,97736.87
2018-11-05T01:27:13.311Z,97734.44
2018-11-05T01:29:41.781Z,97732.52
2018-11-05T01:32:10.265Z,97736.05
2018-11-05T01:34:38.719Z,97725.50
2018-11-05T01:37:09.613Z,97728.22
2018-11-05T01:39:38.253Z,97729.48
2018-11-05T01:42:06.765Z,97720.22
2018-11-05T01:44:35.230Z,97718.26
2018-11-05T01:47:03.742Z,97716.80
2018-11-05T01:49:32.218Z,97719.36
2018-11-05T01:52:03.293Z,97718.41
2018-11-05T01:54:34.947Z,97699.20
2018-11-05T01:57:07.321Z,97703.64
2018-11-05T01:59:41.383Z,97698.23
2018-11-05T02:02:09.890Z,97699.20
2018-11-05T02:04:38.453Z,97701.34
2018-11-05T02:07:16.397Z,97702.20
2018-11-05T02:09:48.564Z,97696.90
2018-11-05T02:12:33.328Z,97690.92
2018-11-05T02:15:02.273Z,97672.33
2018-11-05T02:17:42.062Z,97674.70
2018-11-05T02:20:11.277Z,97679.95
2018-11-05T02:22:40.024Z,97678.24
2018-11-05T02:25:09.558Z,97679.72
2018-11-05T02:27:48.177Z,97680.45
2018-11-05T02:30:37.236Z,97674.41
2018-11-05T02:33:06.021Z,97678.09
2018-11-05T02:35:34.670Z,97675.88
2018-11-05T02:38:12.056Z,97674.86
2018-11-05T02:40:49.085Z,97661.95
2018-11-05T02:43:17.758Z,97666.90
2018-11-05T02:45:46.258Z,97655.88
2018-11-05T02:48:14.773Z,97663.20
2018-11-05T02:50:43.250Z,97661.13
2018-11-05T02:53:11.755Z,97652.80
2018-11-05T02:55:40.266Z,97657.73
2018-11-05T02:58:08.926Z,97653.44
2018-11-05T03:00:37.390Z,97657.66
2018-11-05T03:03:05.922Z,97653.16
2018-11-05T03:05:34.437Z,97646.66
2018-11-05T03:08:02.984Z,97646.95
2018-11-05T03:10:31.474Z,97655.35
2018-11-05T03:12:59.967Z,97641.73
2018-11-05T03:15:28.492Z,97639.88
2018-11-05T03:17:56.983Z,97645.19
2018-11-05T03:20:25.477Z,97641.88
2018-11-05T03:22:53.975Z,97643.12
2018-11-05T03:25:22.494Z,97647.19
2018-11-05T03:27:51.019Z,97648.06
2018-11-05T03:30:19.838Z,97645.19
2018-11-05T03:32:48.423Z,97656.77
2018-11-05T03:35:16.923Z,97653.83
2018-11-05T03:37:46.437Z,97649.16
2018-11-05T03:40:15.322Z,97644.95
2018-11-05T03:42:44.208Z,97646.13
2018-11-05T03:45:14.010Z,97639.66
2018-11-05T03:47:42.655Z,97642.02
2018-11-05T03:50:13.255Z,97639.80
2018-11-05T03:52:42.151Z,97637.38
2018-11-05T03:55:10.646Z,97630.19
2018-11-05T03:57:39.166Z,97630.27
2018-11-05T04:00:08.931Z,97626.66
2018-11-05T04:02:37.515Z,97631.61
2018-11-05T04:05:06.425Z,97626.81
2018-11-05T04:07:34.962Z,97630.42
2018-11-05T04:10:03.488Z,97622.31
2018-11-05T04:12:32.057Z,97621.13
2018-11-05T04:15:00.583Z,97623.14
2018-11-05T04:17:29.074Z,97621.59
2018-11-05T04:19:57.984Z,97617.59
2018-11-05T04:22:26.478Z,97618.77
2018-11-05T04:24:54.970Z,97617.66
2018-11-05T04:27:23.482Z,97624.75
2018-11-05T04:29:51.993Z,97627.55
2018-11-05T04:32:20.497Z,97632.06
2018-11-05T04:34:49.036Z,97637.42
2018-11-05T04:37:17.514Z,97628.27
2018-11-05T04:39:46.039Z,97631.00
2018-11-05T04:42:16.665Z,97631.16
2018-11-05T04:44:45.352Z,97627.63
2018-11-05T04:47:13.859Z,97631.02
2018-11-05T04:49:42.348Z,97625.80
2018-11-05T04:52:10.841Z,97624.29
2018-11-05T04:54:39.371Z,97625.80
2018-11-05T04:57:07.854Z,97621.95
2018-11-05T04:59:36.391Z,97624.47
2018-11-05T05:02:05.164Z,97623.43
2018-11-05T05:04:33.681Z,97625.78
2018-11-05T05:07:02.211Z,97623.06
2018-11-05T05:09:30.726Z,97613.23
2018-11-05T05:11:59.231Z,97613.17
2018-11-05T05:14:27.751Z,97613.23
2018-11-05T05:16:56.252Z,97618.62
2018-11-05T05:19:24.809Z,97600.31
2018-11-05T05:21:53.323Z,97614.56
2018-11-05T05:24:21.837Z,97614.33
2018-11-05T05:26:50.322Z,97616.11
2018-11-05T05:29:18.847Z,97616.34
2018-11-05T05:31:47.340Z,97620.92
2018-11-05T05:34:15.872Z,97623.13
2018-11-05T05:36:44.387Z,97621.11
2018-11-05T05:39:12.913Z,97621.11
2018-11-05T05:41:41.425Z,97631.97
2018-11-05T05:44:09.938Z,97635.59
2018-11-05T05:46:38.410Z,97625.23
2018-11-05T05:49:06.933Z,97616.39
2018-11-05T05:51:35.460Z,97618.03
2018-11-05T05:54:03.970Z,97613.59
2018-11-05T05:56:32.450Z,97609.02
2018-11-05T05:59:01.852Z,97610.71
2018-11-05T06:01:30.392Z,97611.84
2018-11-05T06:03:58.935Z,97611.52
2018-11-05T06:06:27.499Z,97624.00
2018-11-05T06:08:55.973Z,97625.33
2018-11-05T06:11:24.501Z,97619.36
2018-11-05T06:13:53.041Z,97625.69
2018-11-05T06:16:22.693Z,97629.39
2018-11-05T06:18:51.203Z,97625.23
2018-11-05T06:21:20.453Z,97617.48
2018-11-05T06:23:55.339Z,97619.13
2018-11-05T06:26:23.878Z,97620.52
2018-11-05T06:28:52.397Z,97615.55
2018-11-05T06:31:20.918Z,97615.33
2018-11-05T06:33:49.438Z,97622.34
2018-11-05T06:36:17.945Z,97622.28
2018-11-05T06:38:46.467Z,97627.05
2018-11-05T06:41:15.122Z,97624.85
2018-11-05T06:43:43.988Z,97623.28
2018-11-05T06:46:12.527Z,97628.74
2018-11-05T06:48:41.044Z,97640.83
2018-11-05T06:51:09.517Z,97633.21
2018-11-05T06:53:37.978Z,97636.56
2018-11-05T06:56:06.535Z,97639.38
2018-11-05T06:58:35.186Z,97643.06
2018-11-05T07:01:03.682Z,97639.56
2018-11-05T07:03:32.180Z,97636.66
2018-11-05T07:06:00.813Z,97632.92
2018-11-05T07:08:29.724Z,97634.09
2018-11-05T07:10:58.305Z,97632.42
2018-11-05T07:13:27.096Z,97635.52
2018-11-05T07:15:55.866Z,97636.72
2018-11-05T07:18:25.619Z,97640.44
2018-11-05T07:20:54.127Z,97638.77
2018-11-05T07:23:22.989Z,97635.12
2018-11-05T07:25:54.451Z,97637.27
2018-11-05T07:28:23.111Z,97633.81
2018-11-05T07:30:51.611Z,97629.81
2018-11-05T07:33:20.128Z,97626.64
2018-11-05T07:35:48.628Z,97626.88
2018-11-05T07:38:17.118Z,97630.42
2018-11-05T07:40:46.434Z,97621.83
2018-11-05T07:43:14.906Z,97625.08
2018-11-05T07:45:46.401Z,97635.44
2018-11-05T07:48:15.030Z,97633.59
2018-11-05T07:50:43.625Z,97626.42
2018-11-05T07:53:12.068Z,97622.01
2018-11-05T07:55:42.862Z,97616.09
2018-11-05T07:58:13.902Z,97619.80
2018-11-05T08:00:54.904Z,97617.30
2018-11-05T08:03:23.771Z,97619.25
2018-11-05T08:05:55.343Z,97625.06
2018-11-05T08:08:26.084Z,97621.25
2018-11-05T08:10:59.164Z,97615.33
2018-11-05T08:13:27.790Z,97613.72
2018-11-05T08:15:56.297Z,97604.05
2018-11-05T08:18:24.806Z,97607.51
2018-11-05T08:20:53.298Z,97597.95
2018-11-05T08:23:24.725Z,97598.06
2018-11-05T08:25:53.366Z,97590.97
2018-11-05T08:28:21.902Z,97591.80
2018-11-05T08:30:50.435Z,97597.39
2018-11-05T08:33:18.954Z,97594.02
2018-11-05T08:35:47.433Z,97599.87
2018-11-05T08:38:15.939Z,97609.30
2018-11-05T08:40:44.447Z,97595.29
2018-11-05T08:43:13.492Z,97604.81
2018-11-05T08:45:42.120Z,97604.25
2018-11-05T08:48:11.100Z,97600.81
2018-11-05T08:50:44.058Z,97599.55
2018-11-05T08:53:16.528Z,97600.84
2018-11-05T08:55:45.212Z,97607.37
2018-11-05T08:58:13.897Z,97609.75
2018-11-05T09:00:52.491Z,97601.29
2018-11-05T09:03:21.041Z,97595.13
2018-11-05T09:05:49.577Z,97601.41
2018-11-05T09:08:18.135Z,97591.76
2018-11-05T09:10:47.100Z,97597.42
2018-11-05T09:13:15.357Z,97602.35
2018-11-05T09:15:43.873Z,97595.50
2018-11-05T09:18:12.459Z,97605.86
2018-11-05T09:20:41.132Z,97602.77
2018-11-05T09:23:09.653Z,97595.69
2018-11-05T09:25:38.190Z,97597.25
2018-11-05T09:28:07.178Z,97599.22
2018-11-05T09:30:35.668Z,97599.86
2018-11-05T09:33:04.222Z,97604.61
2018-11-05T09:35:33.090Z,97598.03
2018-11-05T09:38:01.674Z,97603.70
2018-11-05T09:40:30.162Z,97599.05
2018-11-05T09:42:58.883Z,97600.75
2018-11-05T09:45:28.648Z,97600.80
2018-11-05T09:47:58.200Z,97594.42
2018-11-05T09:50:26.732Z,97593.27
2018-11-05T09:52:55.199Z,97591.20
2018-11-05T09:55:23.792Z,97587.50
2018-11-05T09:57:52.376Z,97588.89
2018-11-05T10:00:22.923Z,97590.53
2018-11-05T10:02:56.931Z,97580.00
2018-11-05T10:05:25.357Z,97589.84
2018-11-05T10:07:53.914Z,97588.34
2018-11-05T10:10:22.473Z,97586.74
2018-11-05T10:12:50.964Z,97587.34
2018-11-05T10:15:21.671Z,97581.39
2018-11-05T10:17:50.182Z,97591.06
2018-11-05T10:20:21.023Z,97593.00
2018-11-05T10:22:49.541Z,97604.27
2018-11-05T10:25:18.281Z,97601.38
2018-11-05T10:27:47.326Z,97587.91
2018-11-05T10:30:18.021Z,97593.27
2018-11-05T10:32:46.563Z,97587.08
2018-11-05T10:35:16.063Z,97579.05
2018-11-05T10:37:45.418Z,97572.39
2018-11-05T10:40:16.880Z,97575.29
2018-11-05T10:42:46.210Z,97567.34
2018-11-05T10:45:15.907Z,97574.33
2018-11-05T10:47:44.394Z,97583.56
2018-11-05T10:50:14.058Z,97577.48
2018-11-05T10:52:43.303Z,97577.00
2018-11-05T10:55:11.837Z,97574.88
2018-11-05T10:57:41.051Z,97560.95
2018-11-05T11:00:18.779Z,97564.19
2018-11-05T11:02:52.647Z,97565.20
2018-11-05T11:05:21.597Z,97560.89
2018-11-05T11:07:54.551Z,97557.95
2018-11-05T11:10:30.286Z,97550.46
2018-11-05T11:13:01.319Z,97545.13
2018-11-05T11:15:31.386Z,97546.23
2018-11-05T11:17:59.886Z,97541.67
2018-11-05T11:20:28.497Z,97536.24
2018-11-05T11:22:56.987Z,97519.03
2018-11-05T11:25:25.525Z,97516.05
2018-11-05T11:27:54.357Z,97512.82
2018-11-05T11:30:22.783Z,97515.56
2018-11-05T11:32:52.083Z,97503.50
2018-11-05T11:35:20.697Z,97501.44
2018-11-05T11:37:49.181Z,97508.52
2018-11-05T11:40:19.051Z,97506.92
2018-11-05T11:42:48.240Z,97505.72
2018-11-05T11:45:17.863Z,97504.69
2018-11-05T11:47:47.272Z,97497.25
2018-11-05T11:50:16.645Z,97498.63
2018-11-05T11:52:45.157Z,97503.23
2018-11-05T11:55:15.263Z,97489.53
2018-11-05T11:57:44.106Z,97490.31
2018-11-05T12:00:17.068Z,97483.91
2018-11-05T12:02:46.424Z,97482.31
2018-11-05T12:05:15.676Z,97476.39
2018-11-05T12:07:44.343Z,97474.80
2018-11-05T12:10:16.397Z,97477.22
2018-11-05T12:12:45.145Z,97473.44
2018-11-05T12:15:14.738Z,97480.95
2018-11-05T12:17:43.853Z,97476.14
2018-11-05T12:20:14.349Z,97482.34
2018-11-05T12:22:43.400Z,97482.08
2018-11-05T12:25:11.977Z,97479.91
2018-11-05T12:27:40.484Z,97480.43
2018-11-05T12:30:13.275Z,97472.64
2018-11-05T12:32:41.806Z,97488.16
2018-11-05T12:35:11.879Z,97473.76
2018-11-05T12:37:41.124Z,97469.13
2018-11-05T12:40:11.747Z,97473.70
2018-11-05T12:42:40.251Z,97472.13
2018-11-05T12:45:09.478Z,97467.80
2018-11-05T12:47:38.157Z,97463.95
2018-11-05T12:50:14.686Z,97460.91
2018-11-05T12:52:44.124Z,97461.83
2018-11-05T12:55:13.553Z,97462.28
2018-11-05T12:57:42.218Z,97457.73
2018-11-05T13:00:12.961Z,97459.05
2018-11-05T13:02:41.451Z,97451.45
2018-11-05T13:05:11.107Z,97459.94
2018-11-05T13:07:39.680Z,97464.55
2018-11-05T13:10:10.327Z,97468.80
2018-11-05T13:12:39.113Z,97465.77
2018-11-05T13:15:08.187Z,97462.20
2018-11-05T13:17:37.307Z,97459.86
2018-11-05T13:20:06.736Z,97463.31
2018-11-05T13:22:35.246Z,97455.80
2018-11-05T13:25:03.730Z,97458.31
2018-11-05T13:27:32.244Z,97453.78
2018-11-05T13:30:00.963Z,97459.66
2018-11-05T13:32:29.461Z,97453.51
2018-11-05T13:34:57.984Z,97456.45
2018-11-05T13:37:26.856Z,97450.64
2018-11-05T13:39:55.046Z,97441.09
2018-11-05T13:42:23.598Z,97435.88
2018-11-05T13:44:52.182Z,97432.05
2018-11-05T13:47:21.342Z,97415.74
2018-11-05T13:49:49.384Z,97418.25
2018-11-05T13:52:17.881Z,97410.84
2018-11-05T13:54:46.467Z,97412.48
2018-11-05T13:59:42.348Z,97414.73
2018-11-05T14:02:10.923Z,97409.19
2018-11-05T14:04:39.505Z,97405.28
2018-11-05T14:07:09.165Z,97399.72
2018-11-05T14:09:39.219Z,97403.79
2018-11-05T14:12:08.468Z,97415.48
2018-11-05T14:14:37.081Z,97418.46
2018-11-05T14:17:06.759Z,97420.84
2018-11-05T14:19:36.399Z,97422.60
2018-11-05T14:22:05.809Z,97418.11
2018-11-05T14:24:35.192Z,97412.84
2018-11-05T14:27:04.586Z,97411.99
2018-11-05T14:29:34.807Z,97410.70
2018-11-05T14:32:03.897Z,97401.94
2018-11-05T14:34:34.048Z,97396.70
2018-11-05T14:37:03.683Z,97401.02
2018-11-05T14:39:33.023Z,97394.31
2018-11-05T14:42:27.895Z,97396.51
2018-11-05T14:44:57.521Z,97405.06
2018-11-05T14:47:27.030Z,97403.95
2018-11-05T14:50:02.518Z,97406.23
2018-11-05T14:52:34.071Z,97395.52
2018-11-05T14:55:15.569Z,97382.75
2018-11-05T14:57:47.515Z,97383.17
2018-11-05T15:00:19.676Z,97374.51
2018-11-05T15:02:48.767Z,97383.36
2018-11-05T15:05:17.609Z,97386.09
2018-11-05T15:07:46.862Z,97389.16
2018-11-05T15:10:16.991Z,97394.48
2018-11-05T15:12:45.616Z,97385.28
2018-11-05T15:15:14.741Z,97382.01
2018-11-05T15:17:43.880Z,97395.20
2018-11-05T15:20:14.854Z,97407.43
2018-11-05T15:22:43.503Z,97404.77
2018-11-05T15:25:12.538Z,97403.22
2018-11-05T15:27:41.318Z,97412.17
2018-11-05T15:30:12.459Z,97412.42
2018-11-05T15:32:41.676Z,97414.36
2018-11-05T15:35:10.269Z,97412.48
2018-11-05T15:37:39.528Z,97399.65
2018-11-05T15:40:09.144Z,97396.47
2018-11-05T15:42:37.843Z,97402.42
2018-11-05T15:45:08.006Z,97405.70
2018-11-05T15:47:36.535Z,97412.22
2018-11-05T15:50:07.132Z,97413.03
2018-11-05T15:52:35.764Z,97410.08
2018-11-05T15:55:04.174Z,97415.44
2018-11-05T15:57:32.663Z,97416.78
2018-11-05T16:00:01.249Z,97418.66
2018-11-05T16:02:29.760Z,97419.18
2018-11-05T16:05:02.194Z,97423.73
2018-11-05T16:07:34.070Z,97422.93
2018-11-05T16:10:06.040Z,97420.50
2018-11-05T16:12:40.658Z,97424.75
2018-11-05T16:15:14.240Z,97422.33
2018-11-05T16:17:49.017Z,97419.84
2018-11-05T16:20:22.582Z,97430.01
2018-11-05T16:23:02.310Z,97427.54
2018-11-05T16:26:02.555Z,97437.42
2018-11-05T16:28:36.283Z,97447.02
2018-11-05T16:31:08.922Z,97448.03
2018-11-05T16:33:37.814Z,97432.42
2018-11-05T16:36:16.638Z,97442.03
2018-11-05T16:38:45.392Z,97444.10
2018-11-05T16:41:17.501Z,97451.00
2018-11-05T16:43:51.314Z,97445.58
2018-11-05T16:46:26.170Z,97449.78
2018-11-05T16:48:54.978Z,97449.19
2018-11-05T16:51:23.588Z,97451.34
2018-11-05T16:53:52.246Z,97458.78
2018-11-05T16:56:20.619Z,97450.89
2018-11-05T16:58:49.107Z,97454.84
2018-11-05T17:01:17.716Z,97454.74
2018-11-05T17:03:46.114Z,97460.09
2018-11-05T17:06:14.614Z,97459.14
2018-11-05T17:08:43.201Z,97458.31
2018-11-05T17:11:11.749Z,97452.88
2018-11-05T17:13:40.565Z,97449.08
2018-11-05T17:16:08.937Z,97446.52
2018-11-05T17:18:37.482Z,97453.66
2018-11-05T17:21:06.315Z,97461.11
2018-11-05T17:23:34.837Z,97460.23
2018-11-05T17:26:03.370Z,97465.77
2018-11-05T17:28:31.911Z,97468.13
2018-11-05T17:31:00.453Z,97460.63
2018-11-05T17:33:29.054Z,97460.78
2018-11-05T17:35:57.480Z,97460.98
2018-11-05T17:38:26.003Z,97457.21
2018-11-05T17:40:54.514Z,97463.84
2018-11-05T17:43:23.068Z,97471.47
2018-11-05T17:45:51.566Z,97469.55
2018-11-05T17:48:20.051Z,97472.67
2018-11-05T17:50:48.683Z,97466.20
2018-11-05T17:53:17.133Z,97469.62
2018-11-05T17:55:45.623Z,97475.66
2018-11-05T17:58:14.090Z,97480.08
2018-11-05T18:00:42.639Z,97470.22
2018-11-05T18:03:11.131Z,97475.75
2018-11-05T18:05:39.638Z,97480.20
2018-11-05T18:08:08.215Z,97476.06
2018-11-05T18:10:36.721Z,97473.39
2018-11-05T18:13:05.749Z,97467.91
2018-11-05T18:15:34.477Z,97476.29
2018-11-05T18:18:02.865Z,97472.97
2018-11-05T18:20:31.423Z,97475.31
2018-11-05T18:22:59.997Z,97476.67
2018-11-05T18:25:29.667Z,97478.23
2018-11-05T18:27:58.208Z,97483.84
2018-11-05T18:30:26.731Z,97480.92
2018-11-05T18:32:55.274Z,97480.90
2018-11-05T18:35:23.841Z,97488.25
2018-11-05T18:37:52.867Z,97487.21
2018-11-05T18:40:21.447Z,97478.47
2018-11-05T18:42:49.958Z,97484.76
2018-11-05T18:45:18.560Z,97482.96
2018-11-05T18:47:48.811Z,97481.88
2018-11-05T18:50:17.374Z,97485.30
2018-11-05T18:52:46.056Z,97477.57
2018-11-05T18:55:16.050Z,97477.69
2018-11-05T18:57:44.633Z,97480.35
2018-11-05T19:00:19.403Z,97480.52
2018-11-05T19:02:48.425Z,97489.09
2018-11-05T19:05:17.532Z,97487.25
2018-11-05T19:07:46.025Z,97489.02
2018-11-05T19:10:14.775Z,97491.87
2018-11-05T19:12:43.318Z,97489.94
2018-11-05T19:15:13.296Z,97487.63
2018-11-05T19:17:42.383Z,97490.86
2018-11-05T19:20:11.083Z,97482.42
2018-11-05T19:22:41.964Z,97491.24
2018-11-05T19:25:11.877Z,97494.78
2018-11-05T19:27:40.954Z,97502.59
2018-11-05T19:30:12.882Z,97507.44
2018-11-05T19:32:41.868Z,97512.38
2018-11-05T19:35:11.334Z,97502.02
2018-11-05T19:37:40.273Z,97503.98
2018-11-05T19:40:14.381Z,97507.98
2018-11-05T19:42:45.110Z,97506.95
2018-11-05T19:45:15.469Z,97510.87
2018-11-05T19:47:44.022Z,97516.28
2018-11-05T19:50:14.832Z,97521.00
2018-11-05T19:52:44.262Z,97520.36
2018-11-05T19:55:13.885Z,97523.20
2018-11-05T19:57:43.289Z,97523.20
2018-11-05T20:00:30.899Z,97525.53
2018-11-05T20:03:00.398Z,97528.98
2018-11-05T20:05:28.979Z,97535.52
2018-11-05T20:07:58.369Z,97529.16
2018-11-05T20:10:27.771Z,97534.90
2018-11-05T20:12:56.267Z,97539.06
2018-11-05T20:15:24.893Z,97541.73
2018-11-05T20:17:54.411Z,97541.31
2018-11-05T20:20:23.903Z,97543.33
2018-11-05T20:22:52.575Z,97540.67
2018-11-05T20:25:21.126Z,97540.73
2018-11-05T20:27:49.639Z,97540.16
2018-11-05T20:30:27.657Z,97539.98
2018-11-05T20:32:57.799Z,97545.72
2018-11-05T20:35:26.038Z,97540.56
2018-11-05T20:37:54.530Z,97548.28
2018-11-05T20:40:23.711Z,97540.56
2018-11-05T20:42:52.840Z,97539.91
2018-11-05T20:45:22.246Z,97536.49
2018-11-05T20:47:50.774Z,97538.58
2018-11-05T20:50:19.497Z,97546.00
2018-11-05T20:52:48.052Z,97544.08
2018-11-05T20:55:18.035Z,97538.72
2018-11-05T20:57:47.302Z,97544.70
2018-11-05T21:00:17.282Z,97539.44
2018-11-05T21:02:45.783Z,97537.36
2018-11-05T21:05:14.956Z,97533.45
2018-11-05T21:07:43.966Z,97539.16
2018-11-05T21:10:14.118Z,97545.91
2018-11-05T21:12:43.291Z,97543.14
2018-11-05T21:15:18.333Z,97553.84
2018-11-05T21:17:47.853Z,97552.64
2018-11-05T21:20:18.104Z,97542.62
2018-11-05T21:22:47.261Z,97547.29
2018-11-05T21:25:15.620Z,97544.23
2018-11-05T21:27:44.519Z,97549.61
2018-11-05T21:30:15.258Z,97550.11
2018-11-05T21:32:45.488Z,97552.77
2018-11-05T21:35:15.632Z,97550.54
2018-11-05T21:37:44.273Z,97547.77
2018-11-05T21:40:14.094Z,97551.12
2018-11-05T21:42:42.605Z,97551.44
2018-11-05T21:45:12.316Z,97554.69
2018-11-05T21:47:41.207Z,97553.13
2018-11-05T21:50:11.435Z,97560.36
2018-11-05T21:52:40.816Z,97562.20
2018-11-05T21:55:09.690Z,97560.72
2018-11-05T21:57:39.874Z,97568.23
2018-11-05T22:00:11.547Z,97561.97
2018-11-05T22:02:45.231Z,97565.06
2018-11-05T22:05:14.215Z,97566.83
2018-11-05T22:07:43.466Z,97571.40
2018-11-05T22:10:12.609Z,97564.12
2018-11-05T22:12:41.437Z,97567.75
2018-11-05T22:15:09.929Z,97569.91
2018-11-05T22:17:38.451Z,97570.65
2018-11-05T22:20:08.192Z,97573.74
2018-11-05T22:22:37.087Z,97560.86
2018-11-05T22:25:05.574Z,97561.84
2018-11-05T22:27:34.216Z,97573.32
2018-11-05T22:30:02.649Z,97566.09
2018-11-05T22:32:31.330Z,97565.77
2018-11-05T22:35:00.768Z,97568.69
2018-11-05T22:37:29.667Z,97576.41
2018-11-05T22:39:59.127Z,97576.26
2018-11-05T22:42:27.997Z,97568.89
2018-11-05T22:44:56.538Z,97569.35
2018-11-05T22:47:25.360Z,97579.02
2018-11-05T22:49:53.889Z,97574.87
2018-11-05T22:52:22.464Z,97573.41
2018-11-05T22:54:56.482Z,97569.80
2018-11-05T22:57:25.315Z,97565.45
2018-11-05T22:59:54.452Z,97576.08
2018-11-05T23:02:23.045Z,97573.83
2018-11-05T23:04:51.625Z,97570.30
2018-11-05T23:07:20.235Z,97578.27
2018-11-05T23:09:49.155Z,97579.00
2018-11-05T23:12:19.212Z,97584.91
2018-11-05T23:14:47.796Z,97586.75
2018-11-05T23:17:16.766Z,97583.41
2018-11-05T23:19:45.269Z,97579.88
2018-11-05T23:22:13.793Z,97578.05
2018-11-05T23:24:42.283Z,97588.67
2018-11-05T23:27:10.803Z,97589.86
2018-11-05T23:29:44.073Z,97584.69
2018-11-05T23:32:12.635Z,97589.27
2018-11-05T23:34:41.117Z,97583.44
2018-11-05T23:37:11.454Z,97592.87
2018-11-05T23:39:43.029Z,97584.63
2018-11-05T23:42:11.715Z,97577.67
2018-11-05T23:44:40.179Z,97587.64
2018-11-05T23:47:08.700Z,97585.50
2018-11-05T23:49:37.554Z,97583.81
2018-11-05T23:52:06.111Z,97579.54
2018-11-05T23:54:34.578Z,97583.06
2018-11-05T23:57:03.069Z,97582.20
2018-11-05T23:59:31.600Z,97583.70
